No particular awareness of the weather is required.    There are no Weather-warnings


Meteo18 Weather Cam more information Meteo18 Weather Cam


Thunder radar more information blitzortung!


Rain radar more information rain snow radar


Visit our other weather sites:

Template documentation
and downloads

And another site



Weather Underground History page Text

Daily Summary for May 2, 2017 Units:  Both    English   Metric
« Previous Day
Next Day »
Daily Weekly Monthly Yearly Custom
  High: Low: Average:
Temperature: TemperatureC °F /  -17.8 °C 6.4 °F /  -14.2 °C 9 °F /  -12.8 °C
Dew Point: DewpointC °F /  -17.8 °C 5.5 °F /  -14.7 °C 6.7 °F /  -14.1 °C
Humidity: Humidity % 70 % 86 %
Wind Speed: WindSpeedKMH mph /  0 km/h - 4.8 mph /  7.7 km/h
Wind Gust: WindSpeedGustKMH mph /  0 km/h - -
Wind:- - SSE
Pressure: PressurehPa in /  0 hPa 1014.1 in /  34337.4 hPa -
Precipitation: 7.9 in /  200.66 mm    
Historical Graphs
 
 
Tabular Data for May 2, 2017
Time Temperature Dew Point Pressure Wind Wind Speed Wind Gust Humidity Rainfall Rate (Hourly)
TemperatureC °F /  -17.8 °C DewpointC °F /  -17.8 °C PressurehPa in /  0 hPa Calm     Humidity % HourlyPrecipMM in /  0 mm
00:02 8.2 °F /  -13.2 °C 5.8 °F /  -14.6 °C 1016.5 in /  34418.7 hPa SW 3.2 mph /  5.1 km/h 6.4 mph /  10.3 km/h 85 % 0.0 in /  0 mm
00:07 8.2 °F /  -13.2 °C 5.8 °F /  -14.6 °C 1016.1 in /  34405.1 hPa SSW 3.2 mph /  5.1 km/h 6.4 mph /  10.3 km/h 85 % 0.0 in /  0 mm
00:12 8.2 °F /  -13.2 °C 5.8 °F /  -14.6 °C 1016.1 in /  34405.1 hPa SSW 1.6 mph /  2.6 km/h 6.4 mph /  10.3 km/h 85 % 0.0 in /  0 mm
00:17 8.2 °F /  -13.2 °C 5.8 °F /  -14.6 °C 1016.1 in /  34405.1 hPa Calm   6.4 mph /  10.3 km/h 85 % 0.0 in /  0 mm
00:22 8.1 °F /  -13.3 °C 5.7 °F /  -14.6 °C 1016.1 in /  34405.1 hPa Calm   6.4 mph /  10.3 km/h 85 % 0.0 in /  0 mm
00:27 8.1 °F /  -13.3 °C 5.9 °F /  -14.5 °C 1016.1 in /  34405.1 hPa Calm   4.8 mph /  7.7 km/h 86 % 0.0 in /  0 mm
00:32 8.0 °F /  -13.3 °C 5.8 °F /  -14.6 °C 1016.1 in /  34405.1 hPa Calm   3.2 mph /  5.1 km/h 86 % 0.0 in /  0 mm
00:37 8.0 °F /  -13.3 °C 5.8 °F /  -14.6 °C 1016.1 in /  34405.1 hPa Calm   1.6 mph /  2.6 km/h 86 % 0.0 in /  0 mm
00:42 8.0 °F /  -13.3 °C 5.8 °F /  -14.6 °C 1016.1 in /  34405.1 hPa Calm   1.6 mph /  2.6 km/h 86 % 0.0 in /  0 mm
00:47 8.0 °F /  -13.3 °C 6.0 °F /  -14.4 °C 1016.1 in /  34405.1 hPa West 1.6 mph /  2.6 km/h 1.6 mph /  2.6 km/h 87 % 0.0 in /  0 mm
00:52 7.9 °F /  -13.4 °C 5.9 °F /  -14.5 °C 1016.1 in /  34405.1 hPa Calm   1.6 mph /  2.6 km/h 87 % 0.0 in /  0 mm
01:02 8.0 °F /  -13.3 °C 6.0 °F /  -14.4 °C 1016.1 in /  34405.1 hPa Calm   1.6 mph /  2.6 km/h 87 % 0.0 in /  0 mm
01:12 7.9 °F /  -13.4 °C 5.9 °F /  -14.5 °C 1016.1 in /  34405.1 hPa Calm   1.6 mph /  2.6 km/h 87 % 0.0 in /  0 mm
01:17 7.9 °F /  -13.4 °C 5.9 °F /  -14.5 °C 1016.1 in /  34405.1 hPa Calm   1.6 mph /  2.6 km/h 87 % 0.0 in /  0 mm
01:22 7.9 °F /  -13.4 °C 5.9 °F /  -14.5 °C 1016.1 in /  34405.1 hPa Calm     87 % 0.0 in /  0 mm
01:32 7.9 °F /  -13.4 °C 6.2 °F /  -14.3 °C 1016.1 in /  34405.1 hPa Calm   1.6 mph /  2.6 km/h 89 % 0.3 in /  7.62 mm
01:37 7.8 °F /  -13.4 °C 6.1 °F /  -14.4 °C 1016.1 in /  34405.1 hPa South 4.8 mph /  7.7 km/h 4.8 mph /  7.7 km/h 89 % 0.3 in /  7.62 mm
01:42 7.8 °F /  -13.4 °C 6.3 °F /  -14.3 °C 1015.8 in /  34395 hPa Calm   6.4 mph /  10.3 km/h 90 % 0.5 in /  12.7 mm
01:47 7.8 °F /  -13.4 °C 6.3 °F /  -14.3 °C 1015.8 in /  34395 hPa SSW 3.2 mph /  5.1 km/h 6.4 mph /  10.3 km/h 90 % 0.5 in /  12.7 mm
01:52 7.7 °F /  -13.5 °C 6.2 °F /  -14.3 °C 1015.8 in /  34395 hPa South 1.6 mph /  2.6 km/h 8.0 mph /  12.9 km/h 90 % 0.5 in /  12.7 mm
01:57 7.7 °F /  -13.5 °C 6.3 °F /  -14.3 °C 1015.8 in /  34395 hPa SW 1.6 mph /  2.6 km/h 8.0 mph /  12.9 km/h 91 % 0.5 in /  12.7 mm
02:02 7.7 °F /  -13.5 °C 6.3 °F /  -14.3 °C 1015.8 in /  34395 hPa SSW 1.6 mph /  2.6 km/h 8.0 mph /  12.9 km/h 91 % 0.8 in /  20.32 mm
02:07 7.6 °F /  -13.6 °C 6.2 °F /  -14.3 °C 1015.8 in /  34395 hPa Calm   4.8 mph /  7.7 km/h 91 % 1.0 in /  25.4 mm
02:12 7.6 °F /  -13.6 °C 6.4 °F /  -14.2 °C 1015.8 in /  34395 hPa Calm   4.8 mph /  7.7 km/h 92 % 1.0 in /  25.4 mm
02:17 7.6 °F /  -13.6 °C 6.4 °F /  -14.2 °C 1015.8 in /  34395 hPa Calm   4.8 mph /  7.7 km/h 92 % 1.3 in /  33.02 mm
02:22 7.6 °F /  -13.6 °C 6.4 °F /  -14.2 °C 1015.5 in /  34384.8 hPa Calm   3.2 mph /  5.1 km/h 92 % 1.3 in /  33.02 mm
02:27 7.6 °F /  -13.6 °C 6.4 °F /  -14.2 °C 1015.5 in /  34384.8 hPa Calm   1.6 mph /  2.6 km/h 92 % 1.5 in /  38.1 mm
02:32 7.6 °F /  -13.6 °C 6.4 °F /  -14.2 °C 1015.5 in /  34384.8 hPa Calm   1.6 mph /  2.6 km/h 92 % 1.3 in /  33.02 mm
02:37 7.5 °F /  -13.6 °C 6.4 °F /  -14.2 °C 1015.5 in /  34384.8 hPa Calm   1.6 mph /  2.6 km/h 93 % 1.3 in /  33.02 mm
02:42 7.5 °F /  -13.6 °C 6.4 °F /  -14.2 °C 1015.5 in /  34384.8 hPa Calm   1.6 mph /  2.6 km/h 93 % 1.3 in /  33.02 mm
02:47 7.6 °F /  -13.6 °C 6.5 °F /  -14.2 °C 1015.5 in /  34384.8 hPa Calm   1.6 mph /  2.6 km/h 93 % 1.3 in /  33.02 mm
02:52 7.5 °F /  -13.6 °C 6.4 °F /  -14.2 °C 1015.1 in /  34371.3 hPa Calm   3.2 mph /  5.1 km/h 93 % 1.0 in /  25.4 mm
02:57 7.4 °F /  -13.7 °C 6.3 °F /  -14.3 °C 1015.1 in /  34371.3 hPa Calm   3.2 mph /  5.1 km/h 93 % 1.3 in /  33.02 mm
03:02 7.4 °F /  -13.7 °C 6.3 °F /  -14.3 °C 1015.1 in /  34371.3 hPa Calm   3.2 mph /  5.1 km/h 93 % 1.0 in /  25.4 mm
03:07 7.4 °F /  -13.7 °C 6.3 °F /  -14.3 °C 1015.1 in /  34371.3 hPa Calm   1.6 mph /  2.6 km/h 93 % 1.0 in /  25.4 mm
03:12 7.4 °F /  -13.7 °C 6.5 °F /  -14.2 °C 1015.1 in /  34371.3 hPa Calm   1.6 mph /  2.6 km/h 94 % 1.0 in /  25.4 mm
03:17 7.4 °F /  -13.7 °C 6.5 °F /  -14.2 °C 1015.1 in /  34371.3 hPa Calm   1.6 mph /  2.6 km/h 94 % 1.3 in /  33.02 mm
03:22 7.4 °F /  -13.7 °C 6.5 °F /  -14.2 °C 1015.1 in /  34371.3 hPa ESE 1.6 mph /  2.6 km/h 4.8 mph /  7.7 km/h 94 % 1.3 in /  33.02 mm
03:27 7.4 °F /  -13.7 °C 6.5 °F /  -14.2 °C 1015.1 in /  34371.3 hPa Calm   4.8 mph /  7.7 km/h 94 % 1.5 in /  38.1 mm
03:32 7.4 °F /  -13.7 °C 6.5 °F /  -14.2 °C 1015.1 in /  34371.3 hPa East 1.6 mph /  2.6 km/h 3.2 mph /  5.1 km/h 94 % 1.5 in /  38.1 mm
03:37 7.4 °F /  -13.7 °C 6.5 °F /  -14.2 °C 1015.1 in /  34371.3 hPa Calm   3.2 mph /  5.1 km/h 94 % 1.8 in /  45.72 mm
03:42 7.4 °F /  -13.7 °C 6.5 °F /  -14.2 °C 1014.8 in /  34361.1 hPa ESE 3.2 mph /  5.1 km/h 6.4 mph /  10.3 km/h 94 % 1.8 in /  45.72 mm
03:52 7.3 °F /  -13.7 °C 6.4 °F /  -14.2 °C 1014.8 in /  34361.1 hPa Calm   6.4 mph /  10.3 km/h 94 % 2.0 in /  50.8 mm
03:57 7.3 °F /  -13.7 °C 6.4 °F /  -14.2 °C 1014.8 in /  34361.1 hPa East 1.6 mph /  2.6 km/h 3.2 mph /  5.1 km/h 94 % 2.0 in /  50.8 mm
04:02 7.3 °F /  -13.7 °C 6.4 °F /  -14.2 °C 1014.8 in /  34361.1 hPa East 3.2 mph /  5.1 km/h 4.8 mph /  7.7 km/h 94 % 2.0 in /  50.8 mm
04:07 7.2 °F /  -13.8 °C 6.5 °F /  -14.2 °C 1014.4 in /  34347.6 hPa East 3.2 mph /  5.1 km/h 4.8 mph /  7.7 km/h 95 % 2.3 in /  58.42 mm
04:12 7.2 °F /  -13.8 °C 6.5 °F /  -14.2 °C 1014.4 in /  34347.6 hPa ENE 3.2 mph /  5.1 km/h 6.4 mph /  10.3 km/h 95 % 2.0 in /  50.8 mm
04:17 7.2 °F /  -13.8 °C 6.5 °F /  -14.2 °C 1014.4 in /  34347.6 hPa ENE 3.2 mph /  5.1 km/h 6.4 mph /  10.3 km/h 95 % 2.0 in /  50.8 mm
04:22 7.2 °F /  -13.8 °C 6.5 °F /  -14.2 °C 1014.4 in /  34347.6 hPa Calm   9.7 mph /  15.6 km/h 95 % 2.0 in /  50.8 mm
04:27 7.2 °F /  -13.8 °C 6.5 °F /  -14.2 °C 1014.4 in /  34347.6 hPa Calm   9.7 mph /  15.6 km/h 95 % 1.8 in /  45.72 mm
04:32 7.2 °F /  -13.8 °C 6.5 °F /  -14.2 °C 1014.4 in /  34347.6 hPa East 3.2 mph /  5.1 km/h 9.7 mph /  15.6 km/h 95 % 1.5 in /  38.1 mm
04:37 7.2 °F /  -13.8 °C 6.5 °F /  -14.2 °C 1014.4 in /  34347.6 hPa ESE 3.2 mph /  5.1 km/h 4.8 mph /  7.7 km/h 95 % 1.5 in /  38.1 mm
04:42 7.2 °F /  -13.8 °C 6.5 °F /  -14.2 °C 1014.4 in /  34347.6 hPa Calm   3.2 mph /  5.1 km/h 95 % 1.5 in /  38.1 mm
04:47 7.2 °F /  -13.8 °C 6.5 °F /  -14.2 °C 1014.4 in /  34347.6 hPa Calm   3.2 mph /  5.1 km/h 95 % 1.5 in /  38.1 mm
04:52 7.1 °F /  -13.8 °C 6.4 °F /  -14.2 °C 1014.4 in /  34347.6 hPa East 4.8 mph /  7.7 km/h 6.4 mph /  10.3 km/h 95 % 1.5 in /  38.1 mm
04:57 7.1 °F /  -13.8 °C 6.4 °F /  -14.2 °C 1014.4 in /  34347.6 hPa ESE 3.2 mph /  5.1 km/h 8.0 mph /  12.9 km/h 95 % 1.3 in /  33.02 mm
05:02 7.1 °F /  -13.8 °C 6.4 °F /  -14.2 °C 1014.4 in /  34347.6 hPa ESE 3.2 mph /  5.1 km/h 9.7 mph /  15.6 km/h 95 % 1.5 in /  38.1 mm
05:07 7.1 °F /  -13.8 °C 6.4 °F /  -14.2 °C 1014.4 in /  34347.6 hPa East 3.2 mph /  5.1 km/h 11.3 mph /  18.2 km/h 95 % 1.3 in /  33.02 mm
05:12 7.1 °F /  -13.8 °C 6.4 °F /  -14.2 °C 1014.4 in /  34347.6 hPa ESE 3.2 mph /  5.1 km/h 11.3 mph /  18.2 km/h 95 % 1.0 in /  25.4 mm
05:17 7.1 °F /  -13.8 °C 6.4 °F /  -14.2 °C 1014.1 in /  34337.4 hPa ESE 1.6 mph /  2.6 km/h 11.3 mph /  18.2 km/h 95 % 1.3 in /  33.02 mm
05:22 7.1 °F /  -13.8 °C 6.4 °F /  -14.2 °C 1014.1 in /  34337.4 hPa East 4.8 mph /  7.7 km/h 8.0 mph /  12.9 km/h 95 % 1.0 in /  25.4 mm
05:27 7.1 °F /  -13.8 °C 6.4 °F /  -14.2 °C 1014.1 in /  34337.4 hPa ESE 1.6 mph /  2.6 km/h 9.7 mph /  15.6 km/h 95 % 1.0 in /  25.4 mm
05:32 7.0 °F /  -13.9 °C 6.3 °F /  -14.3 °C 1014.1 in /  34337.4 hPa East 3.2 mph /  5.1 km/h 9.7 mph /  15.6 km/h 95 % 0.8 in /  20.32 mm
05:37 6.9 °F /  -13.9 °C 6.2 °F /  -14.3 °C 1014.1 in /  34337.4 hPa ENE 9.7 mph /  15.6 km/h 9.7 mph /  15.6 km/h 95 % 0.8 in /  20.32 mm
05:42 6.9 °F /  -13.9 °C 6.2 °F /  -14.3 °C 1014.1 in /  34337.4 hPa ENE 4.8 mph /  7.7 km/h 11.3 mph /  18.2 km/h 95 % 0.8 in /  20.32 mm
05:47 6.9 °F /  -13.9 °C 6.2 °F /  -14.3 °C 1014.1 in /  34337.4 hPa NE 3.2 mph /  5.1 km/h 11.3 mph /  18.2 km/h 95 % 0.8 in /  20.32 mm
05:52 6.8 °F /  -14 °C 6.1 °F /  -14.4 °C 1014.1 in /  34337.4 hPa East 6.4 mph /  10.3 km/h 11.3 mph /  18.2 km/h 95 % 0.5 in /  12.7 mm
05:57 6.8 °F /  -14 °C 6.1 °F /  -14.4 °C 1014.1 in /  34337.4 hPa East 3.2 mph /  5.1 km/h 11.3 mph /  18.2 km/h 95 % 0.5 in /  12.7 mm
06:02 6.8 °F /  -14 °C 6.1 °F /  -14.4 °C 1014.1 in /  34337.4 hPa ENE 1.6 mph /  2.6 km/h 8.0 mph /  12.9 km/h 95 % 0.5 in /  12.7 mm
06:12 6.8 °F /  -14 °C 6.1 °F /  -14.4 °C 1014.1 in /  34337.4 hPa ENE 3.2 mph /  5.1 km/h 8.0 mph /  12.9 km/h 95 % 0.5 in /  12.7 mm
06:17 6.8 °F /  -14 °C 6.1 °F /  -14.4 °C 1014.1 in /  34337.4 hPa NNE 6.4 mph /  10.3 km/h 8.0 mph /  12.9 km/h 95 % 0.5 in /  12.7 mm
06:22 6.8 °F /  -14 °C 6.1 °F /  -14.4 °C 1014.1 in /  34337.4 hPa NE 6.4 mph /  10.3 km/h 9.7 mph /  15.6 km/h 95 % 0.5 in /  12.7 mm
06:27 6.8 °F /  -14 °C 6.1 °F /  -14.4 °C 1014.1 in /  34337.4 hPa NE 3.2 mph /  5.1 km/h 11.3 mph /  18.2 km/h 95 % 0.5 in /  12.7 mm
06:32 6.8 °F /  -14 °C 6.1 °F /  -14.4 °C 1014.1 in /  34337.4 hPa NNE 4.8 mph /  7.7 km/h 11.3 mph /  18.2 km/h 95 % 0.5 in /  12.7 mm
06:37 6.8 °F /  -14 °C 6.1 °F /  -14.4 °C 1014.1 in /  34337.4 hPa NE 6.4 mph /  10.3 km/h 11.3 mph /  18.2 km/h 95 % 0.5 in /  12.7 mm
06:42 6.8 °F /  -14 °C 6.1 °F /  -14.4 °C 1014.1 in /  34337.4 hPa NE 8.0 mph /  12.9 km/h 11.3 mph /  18.2 km/h 95 % 0.3 in /  7.62 mm
06:47 6.8 °F /  -14 °C 6.1 °F /  -14.4 °C 1014.1 in /  34337.4 hPa NE 11.3 mph /  18.2 km/h 12.9 mph /  20.8 km/h 95 % 0.3 in /  7.62 mm
06:52 6.7 °F /  -14.1 °C 6.0 °F /  -14.4 °C 1014.1 in /  34337.4 hPa NE 6.4 mph /  10.3 km/h 14.5 mph /  23.3 km/h 95 % 0.3 in /  7.62 mm
07:02 6.7 °F /  -14.1 °C 6.0 °F /  -14.4 °C 1014.1 in /  34337.4 hPa NE 9.7 mph /  15.6 km/h 14.5 mph /  23.3 km/h 95 % 0.3 in /  7.62 mm
07:12 6.7 °F /  -14.1 °C 6.0 °F /  -14.4 °C 1014.1 in /  34337.4 hPa North 8.0 mph /  12.9 km/h 14.5 mph /  23.3 km/h 95 % 0.0 in /  0 mm
07:17 6.7 °F /  -14.1 °C 6.0 °F /  -14.4 °C 1014.1 in /  34337.4 hPa NNE 11.3 mph /  18.2 km/h 16.1 mph /  25.9 km/h 95 % 0.0 in /  0 mm
07:22 6.7 °F /  -14.1 °C 6.0 °F /  -14.4 °C 1014.1 in /  34337.4 hPa NE 12.9 mph /  20.8 km/h 17.7 mph /  28.5 km/h 95 % 0.0 in /  0 mm
07:27 6.7 °F /  -14.1 °C 6.0 °F /  -14.4 °C 1014.1 in /  34337.4 hPa NE 4.8 mph /  7.7 km/h 17.7 mph /  28.5 km/h 95 % 0.0 in /  0 mm
07:32 6.7 °F /  -14.1 °C 6.0 °F /  -14.4 °C 1014.1 in /  34337.4 hPa ENE 4.8 mph /  7.7 km/h 17.7 mph /  28.5 km/h 95 % 0.3 in /  7.62 mm
07:37 6.7 °F /  -14.1 °C 5.8 °F /  -14.6 °C 1014.1 in /  34337.4 hPa NE 9.7 mph /  15.6 km/h 17.7 mph /  28.5 km/h 94 % 0.3 in /  7.62 mm
07:42 6.7 °F /  -14.1 °C 5.8 °F /  -14.6 °C 1014.1 in /  34337.4 hPa NE 8.0 mph /  12.9 km/h 17.7 mph /  28.5 km/h 94 % 0.3 in /  7.62 mm
07:47 6.7 °F /  -14.1 °C 5.8 °F /  -14.6 °C 1014.1 in /  34337.4 hPa NE 6.4 mph /  10.3 km/h 17.7 mph /  28.5 km/h 94 % 0.3 in /  7.62 mm
07:52 6.6 °F /  -14.1 °C 5.7 °F /  -14.6 °C 1014.1 in /  34337.4 hPa ENE 11.3 mph /  18.2 km/h 17.7 mph /  28.5 km/h 94 % 0.3 in /  7.62 mm
07:57 6.6 °F /  -14.1 °C 5.7 °F /  -14.6 °C 1014.1 in /  34337.4 hPa NNE 8.0 mph /  12.9 km/h 17.7 mph /  28.5 km/h 94 % 0.3 in /  7.62 mm
08:02 6.6 °F /  -14.1 °C 5.7 °F /  -14.6 °C 1014.1 in /  34337.4 hPa NE 9.7 mph /  15.6 km/h 19.3 mph /  31.1 km/h 94 % 0.5 in /  12.7 mm
08:12 6.5 °F /  -14.2 °C 5.6 °F /  -14.7 °C 1014.1 in /  34337.4 hPa ENE 8.0 mph /  12.9 km/h 17.7 mph /  28.5 km/h 94 % 0.5 in /  12.7 mm
08:17 6.4 °F /  -14.2 °C 5.5 °F /  -14.7 °C 1014.4 in /  34347.6 hPa NE 8.0 mph /  12.9 km/h 22.5 mph /  36.2 km/h 94 % 0.5 in /  12.7 mm
08:22 6.4 °F /  -14.2 °C 5.5 °F /  -14.7 °C 1014.4 in /  34347.6 hPa ENE 11.3 mph /  18.2 km/h 22.5 mph /  36.2 km/h 94 % 0.5 in /  12.7 mm
08:27 6.4 °F /  -14.2 °C 5.5 °F /  -14.7 °C 1014.4 in /  34347.6 hPa NE 11.3 mph /  18.2 km/h 25.7 mph /  41.4 km/h 94 % 0.5 in /  12.7 mm
08:32 6.4 °F /  -14.2 °C 5.5 °F /  -14.7 °C 1014.4 in /  34347.6 hPa NE 16.1 mph /  25.9 km/h 25.7 mph /  41.4 km/h 94 % 0.5 in /  12.7 mm
08:37 6.4 °F /  -14.2 °C 5.5 °F /  -14.7 °C 1014.4 in /  34347.6 hPa North 19.3 mph /  31.1 km/h 25.7 mph /  41.4 km/h 94 % 0.5 in /  12.7 mm
08:42 6.4 °F /  -14.2 °C 5.5 °F /  -14.7 °C 1014.4 in /  34347.6 hPa NE 4.8 mph /  7.7 km/h 19.3 mph /  31.1 km/h 94 % 0.5 in /  12.7 mm
08:47 6.4 °F /  -14.2 °C 5.5 °F /  -14.7 °C 1014.4 in /  34347.6 hPa North 11.3 mph /  18.2 km/h 19.3 mph /  31.1 km/h 94 % 0.5 in /  12.7 mm
08:57 6.4 °F /  -14.2 °C 5.7 °F /  -14.6 °C 1014.4 in /  34347.6 hPa NNE 12.9 mph /  20.8 km/h 22.5 mph /  36.2 km/h 95 % 0.5 in /  12.7 mm
09:02 6.4 °F /  -14.2 °C 5.7 °F /  -14.6 °C 1014.4 in /  34347.6 hPa NNE 12.9 mph /  20.8 km/h 25.7 mph /  41.4 km/h 95 % 0.5 in /  12.7 mm
09:12 6.6 °F /  -14.1 °C 5.9 °F /  -14.5 °C 1014.4 in /  34347.6 hPa NE 9.7 mph /  15.6 km/h 25.7 mph /  41.4 km/h 95 % 0.5 in /  12.7 mm
09:17 6.6 °F /  -14.1 °C 5.9 °F /  -14.5 °C 1014.8 in /  34361.1 hPa NNE 14.5 mph /  23.3 km/h 25.7 mph /  41.4 km/h 95 % 0.8 in /  20.32 mm
09:22 6.7 °F /  -14.1 °C 6.0 °F /  -14.4 °C 1014.8 in /  34361.1 hPa NNE 9.7 mph /  15.6 km/h 25.7 mph /  41.4 km/h 95 % 0.5 in /  12.7 mm
09:32 6.8 °F /  -14 °C 6.1 °F /  -14.4 °C 1014.8 in /  34361.1 hPa NNE 11.3 mph /  18.2 km/h 24.1 mph /  38.8 km/h 95 % 0.5 in /  12.7 mm
09:42 6.9 °F /  -13.9 °C 6.2 °F /  -14.3 °C 1014.8 in /  34361.1 hPa NNE 16.1 mph /  25.9 km/h 20.9 mph /  33.6 km/h 95 % 0.5 in /  12.7 mm
09:47 6.9 °F /  -13.9 °C 6.0 °F /  -14.4 °C 1014.8 in /  34361.1 hPa NNE 9.7 mph /  15.6 km/h 20.9 mph /  33.6 km/h 94 % 0.5 in /  12.7 mm
09:52 6.9 °F /  -13.9 °C 6.0 °F /  -14.4 °C 1014.8 in /  34361.1 hPa ENE 11.3 mph /  18.2 km/h 22.5 mph /  36.2 km/h 94 % 0.5 in /  12.7 mm
09:57 7.0 °F /  -13.9 °C 6.1 °F /  -14.4 °C 1014.8 in /  34361.1 hPa NNE 12.9 mph /  20.8 km/h 22.5 mph /  36.2 km/h 94 % 0.5 in /  12.7 mm
10:02 7.1 °F /  -13.8 °C 6.2 °F /  -14.3 °C 1015.1 in /  34371.3 hPa ENE 3.2 mph /  5.1 km/h 20.9 mph /  33.6 km/h 94 % 0.5 in /  12.7 mm
10:07 7.2 °F /  -13.8 °C 6.3 °F /  -14.3 °C 1015.1 in /  34371.3 hPa North 4.8 mph /  7.7 km/h 20.9 mph /  33.6 km/h 94 % 0.5 in /  12.7 mm
10:12 7.2 °F /  -13.8 °C 6.3 °F /  -14.3 °C 1015.1 in /  34371.3 hPa NE 6.4 mph /  10.3 km/h 20.9 mph /  33.6 km/h 94 % 0.5 in /  12.7 mm
10:17 7.3 °F /  -13.7 °C 6.4 °F /  -14.2 °C 1015.1 in /  34371.3 hPa NE 11.3 mph /  18.2 km/h 19.3 mph /  31.1 km/h 94 % 0.3 in /  7.62 mm
10:22 7.4 °F /  -13.7 °C 6.5 °F /  -14.2 °C 1015.1 in /  34371.3 hPa North 8.0 mph /  12.9 km/h 17.7 mph /  28.5 km/h 94 % 0.3 in /  7.62 mm
10:32 7.5 °F /  -13.6 °C 6.4 °F /  -14.2 °C 1015.1 in /  34371.3 hPa NE 6.4 mph /  10.3 km/h 20.9 mph /  33.6 km/h 93 % 0.3 in /  7.62 mm
10:37 7.7 °F /  -13.5 °C 6.6 °F /  -14.1 °C 1015.1 in /  34371.3 hPa North 9.7 mph /  15.6 km/h 20.9 mph /  33.6 km/h 93 % 0.3 in /  7.62 mm
10:42 7.7 °F /  -13.5 °C 6.5 °F /  -14.2 °C 1015.5 in /  34384.8 hPa NNE 8.0 mph /  12.9 km/h 20.9 mph /  33.6 km/h 92 % 0.0 in /  0 mm
10:47 7.8 °F /  -13.4 °C 6.4 °F /  -14.2 °C 1015.5 in /  34384.8 hPa NNE 11.3 mph /  18.2 km/h 14.5 mph /  23.3 km/h 91 % 0.0 in /  0 mm
10:52 7.7 °F /  -13.5 °C 6.2 °F /  -14.3 °C 1015.5 in /  34384.8 hPa NNE 8.0 mph /  12.9 km/h 19.3 mph /  31.1 km/h 90 % 0.0 in /  0 mm
10:57 7.7 °F /  -13.5 °C 6.0 °F /  -14.4 °C 1015.5 in /  34384.8 hPa NE 6.4 mph /  10.3 km/h 20.9 mph /  33.6 km/h 89 % 0.0 in /  0 mm
11:02 7.8 °F /  -13.4 °C 6.1 °F /  -14.4 °C 1015.5 in /  34384.8 hPa NNE 12.9 mph /  20.8 km/h 20.9 mph /  33.6 km/h 89 % 0.0 in /  0 mm
11:07 7.8 °F /  -13.4 °C 6.1 °F /  -14.4 °C 1015.5 in /  34384.8 hPa NNE 6.4 mph /  10.3 km/h 20.9 mph /  33.6 km/h 89 % 0.0 in /  0 mm
11:12 7.8 °F /  -13.4 °C 6.3 °F /  -14.3 °C 1015.5 in /  34384.8 hPa ENE 1.6 mph /  2.6 km/h 16.1 mph /  25.9 km/h 90 % 0.0 in /  0 mm
11:17 7.8 °F /  -13.4 °C 6.3 °F /  -14.3 °C 1015.5 in /  34384.8 hPa NNW 1.6 mph /  2.6 km/h 16.1 mph /  25.9 km/h 90 % 0.0 in /  0 mm
11:22 7.9 °F /  -13.4 °C 6.4 °F /  -14.2 °C 1015.5 in /  34384.8 hPa NNW 1.6 mph /  2.6 km/h 16.1 mph /  25.9 km/h 90 % 0.0 in /  0 mm
11:27 7.8 °F /  -13.4 °C 6.3 °F /  -14.3 °C 1015.5 in /  34384.8 hPa NE 1.6 mph /  2.6 km/h 16.1 mph /  25.9 km/h 90 % 0.0 in /  0 mm
11:32 7.9 °F /  -13.4 °C 6.4 °F /  -14.2 °C 1015.5 in /  34384.8 hPa North 11.3 mph /  18.2 km/h 11.3 mph /  18.2 km/h 90 % 0.0 in /  0 mm
11:42 7.9 °F /  -13.4 °C 6.5 °F /  -14.2 °C 1015.8 in /  34395 hPa NNE 1.6 mph /  2.6 km/h 14.5 mph /  23.3 km/h 91 % 0.0 in /  0 mm
11:47 8.0 °F /  -13.3 °C 6.6 °F /  -14.1 °C 1015.8 in /  34395 hPa NW 6.4 mph /  10.3 km/h 14.5 mph /  23.3 km/h 91 % 0.0 in /  0 mm
11:52 8.1 °F /  -13.3 °C 6.7 °F /  -14.1 °C 1015.8 in /  34395 hPa NNE 3.2 mph /  5.1 km/h 14.5 mph /  23.3 km/h 91 % 0.0 in /  0 mm
12:02 8.3 °F /  -13.2 °C 6.9 °F /  -13.9 °C 1015.8 in /  34395 hPa ENE 1.6 mph /  2.6 km/h 14.5 mph /  23.3 km/h 91 % 0.0 in /  0 mm
12:07 8.4 °F /  -13.1 °C 7.0 °F /  -13.9 °C 1015.8 in /  34395 hPa NE 9.7 mph /  15.6 km/h 14.5 mph /  23.3 km/h 91 % 0.0 in /  0 mm
12:12 8.6 °F /  -13 °C 6.9 °F /  -13.9 °C 1016.1 in /  34405.1 hPa NE 14.5 mph /  23.3 km/h 14.5 mph /  23.3 km/h 89 % 0.0 in /  0 mm
12:17 9.0 °F /  -12.8 °C 7.3 °F /  -13.7 °C 1016.1 in /  34405.1 hPa ENE 8.0 mph /  12.9 km/h 19.3 mph /  31.1 km/h 89 % 0.0 in /  0 mm
12:22 9.4 °F /  -12.6 °C 7.5 °F /  -13.6 °C 1016.1 in /  34405.1 hPa NE 4.8 mph /  7.7 km/h 19.3 mph /  31.1 km/h 88 % 0.0 in /  0 mm
12:27 9.5 °F /  -12.5 °C 7.4 °F /  -13.7 °C 1016.1 in /  34405.1 hPa Calm   19.3 mph /  31.1 km/h 87 % 0.0 in /  0 mm
12:32 9.7 °F /  -12.4 °C 7.5 °F /  -13.6 °C 1016.1 in /  34405.1 hPa ENE 8.0 mph /  12.9 km/h 14.5 mph /  23.3 km/h 86 % 0.0 in /  0 mm
12:42 9.8 °F /  -12.3 °C 7.2 °F /  -13.8 °C 1016.1 in /  34405.1 hPa ENE 9.7 mph /  15.6 km/h 22.5 mph /  36.2 km/h 84 % 0.0 in /  0 mm
12:47 9.9 °F /  -12.3 °C 7.3 °F /  -13.7 °C 1016.1 in /  34405.1 hPa NNE 8.0 mph /  12.9 km/h 22.5 mph /  36.2 km/h 84 % 0.0 in /  0 mm
12:57 10.1 °F /  -12.2 °C 7.5 °F /  -13.6 °C 1016.1 in /  34405.1 hPa NE 4.8 mph /  7.7 km/h 19.3 mph /  31.1 km/h 84 % 0.0 in /  0 mm
13:02 10.2 °F /  -12.1 °C 7.4 °F /  -13.7 °C 1016.1 in /  34405.1 hPa NNE 11.3 mph /  18.2 km/h 19.3 mph /  31.1 km/h 83 % 0.0 in /  0 mm
13:12 10.2 °F /  -12.1 °C 7.3 °F /  -13.7 °C 1016.1 in /  34405.1 hPa NE 9.7 mph /  15.6 km/h 24.1 mph /  38.8 km/h 82 % 0.0 in /  0 mm
13:17 9.9 °F /  -12.3 °C 6.6 °F /  -14.1 °C 1016.1 in /  34405.1 hPa NNE 14.5 mph /  23.3 km/h 24.1 mph /  38.8 km/h 80 % 0.0 in /  0 mm
13:22 9.9 °F /  -12.3 °C 6.8 °F /  -14 °C 1016.1 in /  34405.1 hPa NNE 9.7 mph /  15.6 km/h 24.1 mph /  38.8 km/h 81 % 0.0 in /  0 mm
13:27 10.1 °F /  -12.2 °C 7.2 °F /  -13.8 °C 1016.5 in /  34418.7 hPa NNE 6.4 mph /  10.3 km/h 24.1 mph /  38.8 km/h 82 % 0.0 in /  0 mm
13:32 10.3 °F /  -12.1 °C 7.2 °F /  -13.8 °C 1016.1 in /  34405.1 hPa NNE 12.9 mph /  20.8 km/h 24.1 mph /  38.8 km/h 81 % 0.0 in /  0 mm
13:37 10.3 °F /  -12.1 °C 6.8 °F /  -14 °C 1016.5 in /  34418.7 hPa NNE 11.3 mph /  18.2 km/h 24.1 mph /  38.8 km/h 79 % 0.0 in /  0 mm
13:42 10.4 °F /  -12 °C 7.3 °F /  -13.7 °C 1016.5 in /  34418.7 hPa ENE 6.4 mph /  10.3 km/h 20.9 mph /  33.6 km/h 81 % 0.0 in /  0 mm
13:47 10.8 °F /  -11.8 °C 7.7 °F /  -13.5 °C 1016.5 in /  34418.7 hPa NE 3.2 mph /  5.1 km/h 20.9 mph /  33.6 km/h 81 % 0.0 in /  0 mm
13:52 10.9 °F /  -11.7 °C 7.8 °F /  -13.4 °C 1016.5 in /  34418.7 hPa ENE 8.0 mph /  12.9 km/h 19.3 mph /  31.1 km/h 81 % 0.0 in /  0 mm
13:57 10.8 °F /  -11.8 °C 7.7 °F /  -13.5 °C 1016.5 in /  34418.7 hPa NE 8.0 mph /  12.9 km/h 11.3 mph /  18.2 km/h 81 % 0.0 in /  0 mm
14:02 11.0 °F /  -11.7 °C 7.7 °F /  -13.5 °C 1016.5 in /  34418.7 hPa ENE 4.8 mph /  7.7 km/h 12.9 mph /  20.8 km/h 80 % 0.0 in /  0 mm
14:07 11.3 °F /  -11.5 °C 7.8 °F /  -13.4 °C 1016.5 in /  34418.7 hPa ENE 6.4 mph /  10.3 km/h 12.9 mph /  20.8 km/h 79 % 0.0 in /  0 mm
14:12 11.4 °F /  -11.4 °C 7.5 °F /  -13.6 °C 1016.5 in /  34418.7 hPa ENE 3.2 mph /  5.1 km/h 14.5 mph /  23.3 km/h 77 % 0.0 in /  0 mm
14:17 11.4 °F /  -11.4 °C 7.7 °F /  -13.5 °C 1016.5 in /  34418.7 hPa ENE 4.8 mph /  7.7 km/h 14.5 mph /  23.3 km/h 78 % 0.0 in /  0 mm
14:22 11.3 °F /  -11.5 °C 7.4 °F /  -13.7 °C 1016.5 in /  34418.7 hPa ENE 6.4 mph /  10.3 km/h 14.5 mph /  23.3 km/h 77 % 0.0 in /  0 mm
14:27 11.1 °F /  -11.6 °C 7.4 °F /  -13.7 °C 1016.5 in /  34418.7 hPa NE 3.2 mph /  5.1 km/h 8.0 mph /  12.9 km/h 78 % 0.0 in /  0 mm
14:32 10.9 °F /  -11.7 °C 7.8 °F /  -13.4 °C 1016.5 in /  34418.7 hPa NE 4.8 mph /  7.7 km/h 8.0 mph /  12.9 km/h 81 % 0.0 in /  0 mm
14:37 10.9 °F /  -11.7 °C 7.9 °F /  -13.4 °C 1016.8 in /  34428.8 hPa North 1.6 mph /  2.6 km/h 8.0 mph /  12.9 km/h 82 % 0.0 in /  0 mm
14:42 10.9 °F /  -11.7 °C 8.1 °F /  -13.3 °C 1016.8 in /  34428.8 hPa NNE 3.2 mph /  5.1 km/h 8.0 mph /  12.9 km/h 83 % 0.3 in /  7.62 mm
14:47 11.3 °F /  -11.5 °C 8.5 °F /  -13.1 °C 1016.8 in /  34428.8 hPa North 9.7 mph /  15.6 km/h 9.7 mph /  15.6 km/h 83 % 0.3 in /  7.62 mm
14:52 11.3 °F /  -11.5 °C 8.2 °F /  -13.2 °C 1016.8 in /  34428.8 hPa NNW 4.8 mph /  7.7 km/h 14.5 mph /  23.3 km/h 81 % 0.3 in /  7.62 mm
14:57 11.3 °F /  -11.5 °C 7.8 °F /  -13.4 °C 1016.8 in /  34428.8 hPa NNE 4.8 mph /  7.7 km/h 14.5 mph /  23.3 km/h 79 % 0.3 in /  7.62 mm
15:02 11.6 °F /  -11.3 °C 7.9 °F /  -13.4 °C 1016.8 in /  34428.8 hPa NNE 1.6 mph /  2.6 km/h 14.5 mph /  23.3 km/h 78 % 0.3 in /  7.62 mm
15:12 12.1 °F /  -11.1 °C 7.4 °F /  -13.7 °C 1016.8 in /  34428.8 hPa North 3.2 mph /  5.1 km/h 12.9 mph /  20.8 km/h 73 % 0.3 in /  7.62 mm
15:17 12.4 °F /  -10.9 °C 7.9 °F /  -13.4 °C 1016.8 in /  34428.8 hPa WNW 8.0 mph /  12.9 km/h 14.5 mph /  23.3 km/h 74 % 0.3 in /  7.62 mm
15:22 12.4 °F /  -10.9 °C 7.9 °F /  -13.4 °C 1017.2 in /  34442.4 hPa North 9.7 mph /  15.6 km/h 16.1 mph /  25.9 km/h 74 % 0.3 in /  7.62 mm
15:27 12.2 °F /  -11 °C 7.1 °F /  -13.8 °C 1016.8 in /  34428.8 hPa NNE 4.8 mph /  7.7 km/h 16.1 mph /  25.9 km/h 71 % 0.3 in /  7.62 mm
15:32 12.2 °F /  -11 °C 7.1 °F /  -13.8 °C 1017.2 in /  34442.4 hPa North 14.5 mph /  23.3 km/h 17.7 mph /  28.5 km/h 71 % 0.3 in /  7.62 mm
15:37 12.1 °F /  -11.1 °C 7.4 °F /  -13.7 °C 1017.2 in /  34442.4 hPa NNE 8.0 mph /  12.9 km/h 17.7 mph /  28.5 km/h 73 % 0.3 in /  7.62 mm
15:42 11.7 °F /  -11.3 °C 7.4 °F /  -13.7 °C 1017.2 in /  34442.4 hPa NE 11.3 mph /  18.2 km/h 17.7 mph /  28.5 km/h 75 % 0.0 in /  0 mm
15:47 11.1 °F /  -11.6 °C 7.8 °F /  -13.4 °C 1017.2 in /  34442.4 hPa ENE 11.3 mph /  18.2 km/h 22.5 mph /  36.2 km/h 80 % 0.0 in /  0 mm
15:57 11.1 °F /  -11.6 °C 8.7 °F /  -12.9 °C 1017.2 in /  34442.4 hPa ESE 1.6 mph /  2.6 km/h 22.5 mph /  36.2 km/h 85 % 0.0 in /  0 mm
16:02 11.3 °F /  -11.5 °C 7.6 °F /  -13.6 °C 1017.2 in /  34442.4 hPa NNW 4.8 mph /  7.7 km/h 12.9 mph /  20.8 km/h 78 % 0.0 in /  0 mm
16:07 11.6 °F /  -11.3 °C 7.9 °F /  -13.4 °C 1017.2 in /  34442.4 hPa NNE 4.8 mph /  7.7 km/h 8.0 mph /  12.9 km/h 78 % 0.0 in /  0 mm
16:12 11.7 °F /  -11.3 °C 7.6 °F /  -13.6 °C 1017.5 in /  34452.6 hPa North 8.0 mph /  12.9 km/h 11.3 mph /  18.2 km/h 76 % 0.0 in /  0 mm
16:17 11.7 °F /  -11.3 °C 7.2 °F /  -13.8 °C 1017.5 in /  34452.6 hPa North 9.7 mph /  15.6 km/h 16.1 mph /  25.9 km/h 74 % 0.0 in /  0 mm
16:22 12.0 °F /  -11.1 °C 7.9 °F /  -13.4 °C 1017.5 in /  34452.6 hPa WNW 1.6 mph /  2.6 km/h 16.1 mph /  25.9 km/h 76 % 0.0 in /  0 mm
16:32 12.3 °F /  -10.9 °C 7.6 °F /  -13.6 °C 1017.5 in /  34452.6 hPa NNE 8.0 mph /  12.9 km/h 16.1 mph /  25.9 km/h 73 % 0.0 in /  0 mm
16:37 12.4 °F /  -10.9 °C 7.5 °F /  -13.6 °C 1017.5 in /  34452.6 hPa NNE 9.7 mph /  15.6 km/h 14.5 mph /  23.3 km/h 72 % 0.0 in /  0 mm
16:42 12.3 °F /  -10.9 °C 7.6 °F /  -13.6 °C 1017.5 in /  34452.6 hPa NNW 3.2 mph /  5.1 km/h 11.3 mph /  18.2 km/h 73 % 0.0 in /  0 mm
16:47 12.3 °F /  -10.9 °C 7.8 °F /  -13.4 °C 1017.8 in /  34462.7 hPa NNW 6.4 mph /  10.3 km/h 11.3 mph /  18.2 km/h 74 % 0.0 in /  0 mm
16:52 12.0 °F /  -11.1 °C 7.3 °F /  -13.7 °C 1017.8 in /  34462.7 hPa NNW 6.4 mph /  10.3 km/h 12.9 mph /  20.8 km/h 73 % 0.0 in /  0 mm
16:57 11.6 °F /  -11.3 °C 7.3 °F /  -13.7 °C 1017.8 in /  34462.7 hPa NNE 22.5 mph /  36.2 km/h 22.5 mph /  36.2 km/h 75 % 0.0 in /  0 mm
17:02 11.1 °F /  -11.6 °C 6.2 °F /  -14.3 °C 1018.2 in /  34476.3 hPa NW 11.3 mph /  18.2 km/h 30.6 mph /  49.2 km/h 72 % 0.0 in /  0 mm
17:07 10.7 °F /  -11.8 °C 6.6 °F /  -14.1 °C 1018.2 in /  34476.3 hPa ENE 4.8 mph /  7.7 km/h 30.6 mph /  49.2 km/h 76 % 0.0 in /  0 mm
17:12 10.3 °F /  -12.1 °C 6.6 °F /  -14.1 °C 1018.2 in /  34476.3 hPa NE 8.0 mph /  12.9 km/h 30.6 mph /  49.2 km/h 78 % 0.3 in /  7.62 mm
17:17 10.1 °F /  -12.2 °C 6.8 °F /  -14 °C 1018.2 in /  34476.3 hPa NE 4.8 mph /  7.7 km/h 22.5 mph /  36.2 km/h 80 % 0.3 in /  7.62 mm
17:22 10.2 °F /  -12.1 °C 7.1 °F /  -13.8 °C 1017.8 in /  34462.7 hPa NNW 3.2 mph /  5.1 km/h 16.1 mph /  25.9 km/h 81 % 0.3 in /  7.62 mm
17:27 10.3 °F /  -12.1 °C 6.8 °F /  -14 °C 1017.8 in /  34462.7 hPa NW 3.2 mph /  5.1 km/h 16.1 mph /  25.9 km/h 79 % 0.3 in /  7.62 mm
17:32 10.4 °F /  -12 °C 6.7 °F /  -14.1 °C 1017.8 in /  34462.7 hPa WNW 1.6 mph /  2.6 km/h 9.7 mph /  15.6 km/h 78 % 0.3 in /  7.62 mm
17:37 10.8 °F /  -11.8 °C 7.3 °F /  -13.7 °C 1017.8 in /  34462.7 hPa NW 6.4 mph /  10.3 km/h 8.0 mph /  12.9 km/h 79 % 0.3 in /  7.62 mm
17:42 10.9 °F /  -11.7 °C 7.0 °F /  -13.9 °C 1017.8 in /  34462.7 hPa NW 3.2 mph /  5.1 km/h 8.0 mph /  12.9 km/h 77 % 0.3 in /  7.62 mm
17:47 11.1 °F /  -11.6 °C 7.4 °F /  -13.7 °C 1017.8 in /  34462.7 hPa WNW 8.0 mph /  12.9 km/h 8.0 mph /  12.9 km/h 78 % 0.3 in /  7.62 mm
17:52 11.2 °F /  -11.6 °C 7.3 °F /  -13.7 °C 1018.2 in /  34476.3 hPa WNW 4.8 mph /  7.7 km/h 8.0 mph /  12.9 km/h 77 % 0.3 in /  7.62 mm
17:57 11.3 °F /  -11.5 °C 7.0 °F /  -13.9 °C 1017.8 in /  34462.7 hPa WNW 4.8 mph /  7.7 km/h 8.0 mph /  12.9 km/h 75 % 0.3 in /  7.62 mm
18:02 11.4 °F /  -11.4 °C 7.3 °F /  -13.7 °C 1017.8 in /  34462.7 hPa NW 4.8 mph /  7.7 km/h 8.0 mph /  12.9 km/h 76 % 0.3 in /  7.62 mm
18:07 11.4 °F /  -11.4 °C 7.5 °F /  -13.6 °C 1017.8 in /  34462.7 hPa NW 6.4 mph /  10.3 km/h 8.0 mph /  12.9 km/h 77 % 0.3 in /  7.62 mm
18:12 11.3 °F /  -11.5 °C 7.6 °F /  -13.6 °C 1017.8 in /  34462.7 hPa Calm   9.7 mph /  15.6 km/h 78 % 0.0 in /  0 mm
18:22 11.4 °F /  -11.4 °C 8.1 °F /  -13.3 °C 1017.8 in /  34462.7 hPa WSW 3.2 mph /  5.1 km/h 9.7 mph /  15.6 km/h 80 % 0.0 in /  0 mm
18:32 11.4 °F /  -11.4 °C 7.9 °F /  -13.4 °C 1018.2 in /  34476.3 hPa WNW 3.2 mph /  5.1 km/h 9.7 mph /  15.6 km/h 79 % 0.0 in /  0 mm
18:42 11.8 °F /  -11.2 °C 8.1 °F /  -13.3 °C 1018.2 in /  34476.3 hPa WNW 3.2 mph /  5.1 km/h 9.7 mph /  15.6 km/h 78 % 0.0 in /  0 mm
18:47 12.1 °F /  -11.1 °C 7.8 °F /  -13.4 °C 1018.2 in /  34476.3 hPa WSW 3.2 mph /  5.1 km/h 9.7 mph /  15.6 km/h 75 % 0.0 in /  0 mm
18:57 12.5 °F /  -10.8 °C 7.4 °F /  -13.7 °C 1018.2 in /  34476.3 hPa WNW 1.6 mph /  2.6 km/h 6.4 mph /  10.3 km/h 71 % 0.0 in /  0 mm
19:02 12.3 °F /  -10.9 °C 7.0 °F /  -13.9 °C 1018.2 in /  34476.3 hPa NW 3.2 mph /  5.1 km/h 9.7 mph /  15.6 km/h 70 % 0.0 in /  0 mm
19:07 12.1 °F /  -11.1 °C 7.0 °F /  -13.9 °C 1018.2 in /  34476.3 hPa West 3.2 mph /  5.1 km/h 9.7 mph /  15.6 km/h 71 % 0.0 in /  0 mm
19:12 12.0 °F /  -11.1 °C 7.1 °F /  -13.8 °C 1018.2 in /  34476.3 hPa WSW 4.8 mph /  7.7 km/h 9.7 mph /  15.6 km/h 72 % 0.0 in /  0 mm
19:17 11.9 °F /  -11.2 °C 7.0 °F /  -13.9 °C 1018.2 in /  34476.3 hPa West 1.6 mph /  2.6 km/h 6.4 mph /  10.3 km/h 72 % 0.0 in /  0 mm
19:22 11.8 °F /  -11.2 °C 7.3 °F /  -13.7 °C 1018.2 in /  34476.3 hPa WNW 6.4 mph /  10.3 km/h 8.0 mph /  12.9 km/h 74 % 0.0 in /  0 mm
19:27 11.7 °F /  -11.3 °C 7.4 °F /  -13.7 °C 1018.5 in /  34486.4 hPa West 1.6 mph /  2.6 km/h 8.0 mph /  12.9 km/h 75 % 0.0 in /  0 mm
19:32 11.6 °F /  -11.3 °C 7.3 °F /  -13.7 °C 1018.5 in /  34486.4 hPa WNW 6.4 mph /  10.3 km/h 8.0 mph /  12.9 km/h 75 % 0.0 in /  0 mm
19:37 11.5 °F /  -11.4 °C 7.6 °F /  -13.6 °C 1018.5 in /  34486.4 hPa WNW 8.0 mph /  12.9 km/h 8.0 mph /  12.9 km/h 77 % 0.0 in /  0 mm
19:42 11.6 °F /  -11.3 °C 7.9 °F /  -13.4 °C 1018.5 in /  34486.4 hPa WSW 3.2 mph /  5.1 km/h 8.0 mph /  12.9 km/h 78 % 0.0 in /  0 mm
19:47 11.6 °F /  -11.3 °C 8.1 °F /  -13.3 °C 1018.2 in /  34476.3 hPa West 4.8 mph /  7.7 km/h 8.0 mph /  12.9 km/h 79 % 0.0 in /  0 mm
19:52 11.6 °F /  -11.3 °C 7.9 °F /  -13.4 °C 1018.5 in /  34486.4 hPa WNW 4.8 mph /  7.7 km/h 8.0 mph /  12.9 km/h 78 % 0.0 in /  0 mm
19:57 11.4 °F /  -11.4 °C 7.7 °F /  -13.5 °C 1018.5 in /  34486.4 hPa West 3.2 mph /  5.1 km/h 9.7 mph /  15.6 km/h 78 % 0.0 in /  0 mm
20:02 11.3 °F /  -11.5 °C 7.6 °F /  -13.6 °C 1018.5 in /  34486.4 hPa Calm   9.7 mph /  15.6 km/h 78 % 0.0 in /  0 mm
20:07 11.1 °F /  -11.6 °C 7.4 °F /  -13.7 °C 1018.5 in /  34486.4 hPa West 9.7 mph /  15.6 km/h 11.3 mph /  18.2 km/h 78 % 0.0 in /  0 mm
20:12 11.0 °F /  -11.7 °C 7.3 °F /  -13.7 °C 1018.5 in /  34486.4 hPa WNW 1.6 mph /  2.6 km/h 14.5 mph /  23.3 km/h 78 % 0.0 in /  0 mm
20:17 10.8 °F /  -11.8 °C 7.1 °F /  -13.8 °C 1018.2 in /  34476.3 hPa West 3.2 mph /  5.1 km/h 14.5 mph /  23.3 km/h 78 % 0.0 in /  0 mm
20:22 10.7 °F /  -11.8 °C 7.0 °F /  -13.9 °C 1018.5 in /  34486.4 hPa NW 3.2 mph /  5.1 km/h 14.5 mph /  23.3 km/h 78 % 0.0 in /  0 mm
20:27 10.5 °F /  -11.9 °C 7.0 °F /  -13.9 °C 1018.5 in /  34486.4 hPa WNW 4.8 mph /  7.7 km/h 8.0 mph /  12.9 km/h 79 % 0.0 in /  0 mm
20:37 10.4 °F /  -12 °C 6.7 °F /  -14.1 °C 1018.5 in /  34486.4 hPa WNW 1.6 mph /  2.6 km/h 6.4 mph /  10.3 km/h 78 % 0.0 in /  0 mm
20:42 10.2 °F /  -12.1 °C 6.7 °F /  -14.1 °C 1018.5 in /  34486.4 hPa Calm   4.8 mph /  7.7 km/h 79 % 0.0 in /  0 mm
20:47 10.1 °F /  -12.2 °C 6.6 °F /  -14.1 °C 1018.5 in /  34486.4 hPa West 1.6 mph /  2.6 km/h 4.8 mph /  7.7 km/h 79 % 0.0 in /  0 mm
20:52 10.2 °F /  -12.1 °C 6.7 °F /  -14.1 °C 1018.8 in /  34496.6 hPa Calm   4.8 mph /  7.7 km/h 79 % 0.0 in /  0 mm
20:57 10.1 °F /  -12.2 °C 6.6 °F /  -14.1 °C 1018.8 in /  34496.6 hPa Calm   6.4 mph /  10.3 km/h 79 % 0.0 in /  0 mm
21:02 9.9 °F /  -12.3 °C 6.4 °F /  -14.2 °C 1018.8 in /  34496.6 hPa Calm   6.4 mph /  10.3 km/h 79 % 0.0 in /  0 mm
21:07 9.8 °F /  -12.3 °C 6.5 °F /  -14.2 °C 1018.8 in /  34496.6 hPa Calm   3.2 mph /  5.1 km/h 80 % 0.0 in /  0 mm
21:12 9.7 °F /  -12.4 °C 6.6 °F /  -14.1 °C 1018.8 in /  34496.6 hPa NW 3.2 mph /  5.1 km/h 4.8 mph /  7.7 km/h 81 % 0.0 in /  0 mm
21:17 9.7 °F /  -12.4 °C 6.8 °F /  -14 °C 1018.8 in /  34496.6 hPa West 4.8 mph /  7.7 km/h 6.4 mph /  10.3 km/h 82 % 0.0 in /  0 mm
21:22 9.6 °F /  -12.4 °C 6.7 °F /  -14.1 °C 1018.8 in /  34496.6 hPa WNW 1.6 mph /  2.6 km/h 9.7 mph /  15.6 km/h 82 % 0.0 in /  0 mm
21:27 9.6 °F /  -12.4 °C 6.9 °F /  -13.9 °C 1018.8 in /  34496.6 hPa WNW 1.6 mph /  2.6 km/h 9.7 mph /  15.6 km/h 83 % 0.0 in /  0 mm
21:32 9.5 °F /  -12.5 °C 6.9 °F /  -13.9 °C 1019.2 in /  34510.1 hPa WNW 1.6 mph /  2.6 km/h 6.4 mph /  10.3 km/h 84 % 0.0 in /  0 mm
21:37 9.4 °F /  -12.6 °C 6.8 °F /  -14 °C 1019.2 in /  34510.1 hPa West 1.6 mph /  2.6 km/h 6.4 mph /  10.3 km/h 84 % 0.0 in /  0 mm
21:42 9.5 °F /  -12.5 °C 6.8 °F /  -14 °C 1019.2 in /  34510.1 hPa West 6.4 mph /  10.3 km/h 9.7 mph /  15.6 km/h 83 % 0.0 in /  0 mm
21:47 9.7 °F /  -12.4 °C 6.8 °F /  -14 °C 1019.2 in /  34510.1 hPa WNW 3.2 mph /  5.1 km/h 9.7 mph /  15.6 km/h 82 % 0.0 in /  0 mm
21:52 9.7 °F /  -12.4 °C 6.6 °F /  -14.1 °C 1019.2 in /  34510.1 hPa West 3.2 mph /  5.1 km/h 9.7 mph /  15.6 km/h 81 % 0.0 in /  0 mm
21:57 9.8 °F /  -12.3 °C 6.5 °F /  -14.2 °C 1019.2 in /  34510.1 hPa WNW 9.7 mph /  15.6 km/h 9.7 mph /  15.6 km/h 80 % 0.0 in /  0 mm
22:02 9.9 °F /  -12.3 °C 6.6 °F /  -14.1 °C 1019.2 in /  34510.1 hPa West 6.4 mph /  10.3 km/h 9.7 mph /  15.6 km/h 80 % 0.0 in /  0 mm
22:07 9.9 °F /  -12.3 °C 6.6 °F /  -14.1 °C 1019.2 in /  34510.1 hPa SW 3.2 mph /  5.1 km/h 9.7 mph /  15.6 km/h 80 % 0.0 in /  0 mm
22:12 9.8 °F /  -12.3 °C 6.7 °F /  -14.1 °C 1019.5 in /  34520.3 hPa Calm   9.7 mph /  15.6 km/h 81 % 0.0 in /  0 mm
22:17 9.8 °F /  -12.3 °C 6.7 °F /  -14.1 °C 1019.5 in /  34520.3 hPa West 3.2 mph /  5.1 km/h 9.7 mph /  15.6 km/h 81 % 0.0 in /  0 mm
22:27 9.8 °F /  -12.3 °C 6.7 °F /  -14.1 °C 1019.2 in /  34510.1 hPa West 1.6 mph /  2.6 km/h 8.0 mph /  12.9 km/h 81 % 0.0 in /  0 mm
22:32 9.8 °F /  -12.3 °C 6.7 °F /  -14.1 °C 1019.2 in /  34510.1 hPa Calm   8.0 mph /  12.9 km/h 81 % 0.0 in /  0 mm
22:37 9.8 °F /  -12.3 °C 6.7 °F /  -14.1 °C 1019.2 in /  34510.1 hPa WNW 1.6 mph /  2.6 km/h 6.4 mph /  10.3 km/h 81 % 0.0 in /  0 mm
22:42 9.8 °F /  -12.3 °C 6.7 °F /  -14.1 °C 1019.2 in /  34510.1 hPa West 1.6 mph /  2.6 km/h 4.8 mph /  7.7 km/h 81 % 0.0 in /  0 mm
22:47 9.8 °F /  -12.3 °C 6.7 °F /  -14.1 °C 1019.2 in /  34510.1 hPa Calm   4.8 mph /  7.7 km/h 81 % 0.0 in /  0 mm
22:52 9.8 °F /  -12.3 °C 6.9 °F /  -13.9 °C 1019.5 in /  34520.3 hPa Calm   4.8 mph /  7.7 km/h 82 % 0.0 in /  0 mm
22:57 9.7 °F /  -12.4 °C 6.8 °F /  -14 °C 1019.5 in /  34520.3 hPa WNW 1.6 mph /  2.6 km/h 4.8 mph /  7.7 km/h 82 % 0.0 in /  0 mm
23:02 9.7 °F /  -12.4 °C 6.8 °F /  -14 °C 1019.5 in /  34520.3 hPa Calm   3.2 mph /  5.1 km/h 82 % 0.0 in /  0 mm
23:07 9.7 °F /  -12.4 °C 7.0 °F /  -13.9 °C 1019.5 in /  34520.3 hPa WNW 4.8 mph /  7.7 km/h 4.8 mph /  7.7 km/h 83 % 0.0 in /  0 mm
23:12 9.6 °F /  -12.4 °C 6.9 °F /  -13.9 °C 1019.5 in /  34520.3 hPa West 1.6 mph /  2.6 km/h 4.8 mph /  7.7 km/h 83 % 0.0 in /  0 mm
23:17 9.6 °F /  -12.4 °C 6.9 °F /  -13.9 °C 1019.5 in /  34520.3 hPa WNW 4.8 mph /  7.7 km/h 4.8 mph /  7.7 km/h 83 % 0.0 in /  0 mm
23:22 9.6 °F /  -12.4 °C 6.9 °F /  -13.9 °C 1019.5 in /  34520.3 hPa WNW 1.6 mph /  2.6 km/h 8.0 mph /  12.9 km/h 83 % 0.0 in /  0 mm
23:27 9.6 °F /  -12.4 °C 6.9 °F /  -13.9 °C 1019.5 in /  34520.3 hPa WSW 1.6 mph /  2.6 km/h 8.0 mph /  12.9 km/h 83 % 0.0 in /  0 mm
23:32 9.6 °F /  -12.4 °C 6.9 °F /  -13.9 °C 1019.5 in /  34520.3 hPa West 3.2 mph /  5.1 km/h 8.0 mph /  12.9 km/h 83 % 0.0 in /  0 mm
23:37 9.6 °F /  -12.4 °C 7.0 °F /  -13.9 °C 1019.5 in /  34520.3 hPa Calm   8.0 mph /  12.9 km/h 84 % 0.0 in /  0 mm
23:42 9.5 °F /  -12.5 °C 6.9 °F /  -13.9 °C 1019.5 in /  34520.3 hPa West 1.6 mph /  2.6 km/h 8.0 mph /  12.9 km/h 84 % 0.0 in /  0 mm
23:47 9.5 °F /  -12.5 °C 6.9 °F /  -13.9 °C 1019.5 in /  34520.3 hPa West 4.8 mph /  7.7 km/h 4.8 mph /  7.7 km/h 84 % 0.0 in /  0 mm
23:52 9.6 °F /  -12.4 °C 7.0 °F /  -13.9 °C 1019.5 in /  34520.3 hPa West 3.2 mph /  5.1 km/h 4.8 mph /  7.7 km/h 84 % 0.0 in /  0 mm
23:57 9.6 °F /  -12.4 °C 7.0 °F /  -13.9 °C 1019.5 in /  34520.3 hPa West 1.6 mph /  2.6 km/h 4.8 mph /  7.7 km/h 84 % 0.0 in /  0 mm
Meteo18
Compliments of Weather Underground - 4 mb

Script developed by  Jim McMurry - jmcmurry@mwt.net Adapted for the template by  Wim van der Kuil - Leuven-Template.eu

You find our weather info also at:

European Weather Network

Weather Underground

Equipment we use:

Weather-station
Davis Vue

Weather-program
Meteobridge

Weather-server
Raspberry PI 2 B+

Provider
1 and 1

Davis Vue

Meteobridge

Raspberry PI 2 B+

1 and 1